sensor_id;sensor_type;location;lat;lon;timestamp;P1;durP1;ratioP1;P2;durP2;ratioP2
24799;SDS011;12897;50.812;4.430;2022-12-18T00:00:07;86.35;;;35.52;;
24799;SDS011;12897;50.812;4.430;2022-12-18T00:02:35;89.22;;;35.00;;
24799;SDS011;12897;50.812;4.430;2022-12-18T00:05:03;81.53;;;34.08;;
24799;SDS011;12897;50.812;4.430;2022-12-18T00:07:33;78.37;;;33.38;;
24799;SDS011;12897;50.812;4.430;2022-12-18T00:10:03;83.65;;;32.60;;
24799;SDS011;12897;50.812;4.430;2022-12-18T00:15:00;79.87;;;31.40;;
24799;SDS011;12897;50.812;4.430;2022-12-18T00:17:29;91.40;;;33.35;;
24799;SDS011;12897;50.812;4.430;2022-12-18T00:19:57;80.80;;;34.48;;
24799;SDS011;12897;50.812;4.430;2022-12-18T00:22:25;84.83;;;32.53;;
24799;SDS011;12897;50.812;4.430;2022-12-18T00:24:53;71.70;;;32.13;;
24799;SDS011;12897;50.812;4.430;2022-12-18T00:27:21;77.72;;;32.15;;
24799;SDS011;12897;50.812;4.430;2022-12-18T00:29:50;73.35;;;31.10;;
24799;SDS011;12897;50.812;4.430;2022-12-18T00:32:20;78.50;;;31.35;;
24799;SDS011;12897;50.812;4.430;2022-12-18T00:34:47;81.53;;;32.10;;
24799;SDS011;12897;50.812;4.430;2022-12-18T00:37:14;70.20;;;30.43;;
24799;SDS011;12897;50.812;4.430;2022-12-18T00:39:43;75.65;;;32.80;;
24799;SDS011;12897;50.812;4.430;2022-12-18T00:42:15;71.37;;;29.72;;
24799;SDS011;12897;50.812;4.430;2022-12-18T00:45:02;73.33;;;31.25;;
24799;SDS011;12897;50.812;4.430;2022-12-18T00:47:33;72.82;;;31.30;;
24799;SDS011;12897;50.812;4.430;2022-12-18T00:50:02;80.70;;;31.48;;
24799;SDS011;12897;50.812;4.430;2022-12-18T00:52:31;78.37;;;32.00;;
24799;SDS011;12897;50.812;4.430;2022-12-18T00:54:59;100.05;;;36.75;;
24799;SDS011;12897;50.812;4.430;2022-12-18T00:57:26;90.32;;;35.43;;
24799;SDS011;12897;50.812;4.430;2022-12-18T00:59:54;99.42;;;39.40;;
24799;SDS011;12897;50.812;4.430;2022-12-18T01:02:23;94.97;;;36.85;;
24799;SDS011;12897;50.812;4.430;2022-12-18T01:04:51;85.28;;;34.05;;
24799;SDS011;12897;50.812;4.430;2022-12-18T01:07:19;86.50;;;34.10;;
24799;SDS011;12897;50.812;4.430;2022-12-18T01:09:47;87.00;;;33.53;;
24799;SDS011;12897;50.812;4.430;2022-12-18T01:12:16;76.02;;;29.23;;
24799;SDS011;12897;50.812;4.430;2022-12-18T01:14:44;78.52;;;31.48;;
24799;SDS011;12897;50.812;4.430;2022-12-18T01:17:15;84.75;;;32.30;;
24799;SDS011;12897;50.812;4.430;2022-12-18T01:19:43;75.60;;;31.30;;
24799;SDS011;12897;50.812;4.430;2022-12-18T01:22:10;89.95;;;36.23;;
24799;SDS011;12897;50.812;4.430;2022-12-18T01:24:38;78.97;;;29.90;;
24799;SDS011;12897;50.812;4.430;2022-12-18T01:27:06;69.05;;;28.42;;
24799;SDS011;12897;50.812;4.430;2022-12-18T01:29:33;71.70;;;28.00;;
24799;SDS011;12897;50.812;4.430;2022-12-18T01:32:01;67.15;;;26.85;;
24799;SDS011;12897;50.812;4.430;2022-12-18T01:34:28;68.92;;;27.65;;
24799;SDS011;12897;50.812;4.430;2022-12-18T01:36:56;63.92;;;25.82;;
24799;SDS011;12897;50.812;4.430;2022-12-18T01:39:24;60.83;;;26.50;;
24799;SDS011;12897;50.812;4.430;2022-12-18T01:41:51;61.77;;;26.27;;
24799;SDS011;12897;50.812;4.430;2022-12-18T01:47:50;56.50;;;24.67;;
24799;SDS011;12897;50.812;4.430;2022-12-18T01:50:18;60.00;;;23.95;;
24799;SDS011;12897;50.812;4.430;2022-12-18T01:52:56;60.05;;;23.15;;
24799;SDS011;12897;50.812;4.430;2022-12-18T01:55:31;55.40;;;23.67;;
24799;SDS011;12897;50.812;4.430;2022-12-18T02:00:37;58.68;;;23.90;;
24799;SDS011;12897;50.812;4.430;2022-12-18T02:03:06;58.87;;;25.52;;
24799;SDS011;12897;50.812;4.430;2022-12-18T02:16:41;57.15;;;23.02;;
24799;SDS011;12897;50.812;4.430;2022-12-18T02:22:24;57.15;;;22.73;;
24799;SDS011;12897;50.812;4.430;2022-12-18T02:30:45;50.92;;;20.70;;
24799;SDS011;12897;50.812;4.430;2022-12-18T02:33:17;54.40;;;21.27;;
24799;SDS011;12897;50.812;4.430;2022-12-18T02:35:53;52.70;;;21.02;;
24799;SDS011;12897;50.812;4.430;2022-12-18T02:38:32;56.08;;;21.77;;
24799;SDS011;12897;50.812;4.430;2022-12-18T02:41:13;56.00;;;21.52;;
24799;SDS011;12897;50.812;4.430;2022-12-18T02:56:57;53.05;;;23.42;;
24799;SDS011;12897;50.812;4.430;2022-12-18T03:02:35;52.25;;;21.60;;
24799;SDS011;12897;50.812;4.430;2022-12-18T03:07:41;45.28;;;18.77;;
24799;SDS011;12897;50.812;4.430;2022-12-18T03:10:07;52.75;;;20.40;;
24799;SDS011;12897;50.812;4.430;2022-12-18T03:12:37;45.43;;;19.05;;
24799;SDS011;12897;50.812;4.430;2022-12-18T03:15:31;50.78;;;20.40;;
24799;SDS011;12897;50.812;4.430;2022-12-18T03:18:08;50.98;;;18.87;;
24799;SDS011;12897;50.812;4.430;2022-12-18T03:20:36;42.70;;;20.05;;
24799;SDS011;12897;50.812;4.430;2022-12-18T03:23:11;47.78;;;18.75;;
24799;SDS011;12897;50.812;4.430;2022-12-18T03:25:52;43.38;;;18.65;;
24799;SDS011;12897;50.812;4.430;2022-12-18T03:28:24;49.27;;;18.80;;
24799;SDS011;12897;50.812;4.430;2022-12-18T03:31:05;42.98;;;17.65;;
24799;SDS011;12897;50.812;4.430;2022-12-18T03:33:47;47.27;;;18.87;;
24799;SDS011;12897;50.812;4.430;2022-12-18T03:36:22;43.75;;;18.65;;
24799;SDS011;12897;50.812;4.430;2022-12-18T03:38:57;42.83;;;18.50;;
24799;SDS011;12897;50.812;4.430;2022-12-18T03:44:20;41.70;;;17.62;;
24799;SDS011;12897;50.812;4.430;2022-12-18T03:47:01;40.17;;;16.20;;
24799;SDS011;12897;50.812;4.430;2022-12-18T03:49:35;41.45;;;18.17;;
24799;SDS011;12897;50.812;4.430;2022-12-18T03:52:20;39.30;;;16.97;;
24799;SDS011;12897;50.812;4.430;2022-12-18T03:54:47;41.25;;;16.90;;
24799;SDS011;12897;50.812;4.430;2022-12-18T03:57:20;47.45;;;17.25;;
24799;SDS011;12897;50.812;4.430;2022-12-18T03:59:57;41.15;;;16.45;;
24799;SDS011;12897;50.812;4.430;2022-12-18T04:02:35;44.90;;;17.62;;
24799;SDS011;12897;50.812;4.430;2022-12-18T04:05:06;39.90;;;16.80;;
24799;SDS011;12897;50.812;4.430;2022-12-18T04:10:19;42.17;;;16.57;;
24799;SDS011;12897;50.812;4.430;2022-12-18T04:12:47;42.75;;;17.17;;
24799;SDS011;12897;50.812;4.430;2022-12-18T04:15:15;41.33;;;17.02;;
24799;SDS011;12897;50.812;4.430;2022-12-18T04:17:49;40.83;;;16.95;;
24799;SDS011;12897;50.812;4.430;2022-12-18T04:20:15;37.63;;;16.20;;
24799;SDS011;12897;50.812;4.430;2022-12-18T04:22:43;41.75;;;16.77;;
24799;SDS011;12897;50.812;4.430;2022-12-18T04:25:11;48.28;;;17.87;;
24799;SDS011;12897;50.812;4.430;2022-12-18T04:27:39;39.58;;;16.35;;
24799;SDS011;12897;50.812;4.430;2022-12-18T04:30:06;39.60;;;16.35;;
24799;SDS011;12897;50.812;4.430;2022-12-18T04:32:35;44.83;;;17.32;;
24799;SDS011;12897;50.812;4.430;2022-12-18T04:35:03;36.90;;;16.15;;
24799;SDS011;12897;50.812;4.430;2022-12-18T04:37:32;40.05;;;16.17;;
24799;SDS011;12897;50.812;4.430;2022-12-18T04:40:00;40.48;;;17.12;;
24799;SDS011;12897;50.812;4.430;2022-12-18T04:42:27;41.33;;;15.53;;
24799;SDS011;12897;50.812;4.430;2022-12-18T04:44:55;37.28;;;15.88;;
24799;SDS011;12897;50.812;4.430;2022-12-18T04:47:23;44.63;;;17.82;;
24799;SDS011;12897;50.812;4.430;2022-12-18T04:49:50;41.30;;;16.57;;
24799;SDS011;12897;50.812;4.430;2022-12-18T05:00:12;37.17;;;16.05;;
24799;SDS011;12897;50.812;4.430;2022-12-18T05:02:40;43.00;;;16.12;;
24799;SDS011;12897;50.812;4.430;2022-12-18T05:05:08;39.70;;;16.60;;
24799;SDS011;12897;50.812;4.430;2022-12-18T05:07:36;43.55;;;16.57;;
24799;SDS011;12897;50.812;4.430;2022-12-18T05:10:06;42.60;;;17.25;;
24799;SDS011;12897;50.812;4.430;2022-12-18T05:12:44;39.63;;;17.40;;
24799;SDS011;12897;50.812;4.430;2022-12-18T05:15:10;39.67;;;16.25;;
24799;SDS011;12897;50.812;4.430;2022-12-18T05:17:38;39.08;;;16.95;;
24799;SDS011;12897;50.812;4.430;2022-12-18T05:20:20;38.02;;;15.80;;
24799;SDS011;12897;50.812;4.430;2022-12-18T05:23:05;36.48;;;15.80;;
24799;SDS011;12897;50.812;4.430;2022-12-18T05:28:06;40.38;;;16.30;;
24799;SDS011;12897;50.812;4.430;2022-12-18T05:30:34;33.95;;;15.65;;
24799;SDS011;12897;50.812;4.430;2022-12-18T05:33:02;41.05;;;15.98;;
24799;SDS011;12897;50.812;4.430;2022-12-18T05:35:29;37.48;;;14.28;;
24799;SDS011;12897;50.812;4.430;2022-12-18T05:37:57;40.38;;;15.58;;
24799;SDS011;12897;50.812;4.430;2022-12-18T05:40:24;38.08;;;15.35;;
24799;SDS011;12897;50.812;4.430;2022-12-18T05:42:52;40.30;;;15.83;;
24799;SDS011;12897;50.812;4.430;2022-12-18T05:45:24;33.73;;;15.15;;
24799;SDS011;12897;50.812;4.430;2022-12-18T05:47:52;40.35;;;16.55;;
24799;SDS011;12897;50.812;4.430;2022-12-18T05:50:21;36.98;;;15.20;;
24799;SDS011;12897;50.812;4.430;2022-12-18T05:52:50;35.00;;;15.65;;
24799;SDS011;12897;50.812;4.430;2022-12-18T05:55:24;38.78;;;15.18;;
24799;SDS011;12897;50.812;4.430;2022-12-18T05:57:52;35.15;;;15.00;;
24799;SDS011;12897;50.812;4.430;2022-12-18T06:00:19;35.35;;;15.13;;
24799;SDS011;12897;50.812;4.430;2022-12-18T06:02:49;36.70;;;15.15;;
24799;SDS011;12897;50.812;4.430;2022-12-18T06:05:17;39.38;;;15.45;;
24799;SDS011;12897;50.812;4.430;2022-12-18T06:07:44;35.00;;;14.30;;
24799;SDS011;12897;50.812;4.430;2022-12-18T06:10:12;36.85;;;15.75;;
24799;SDS011;12897;50.812;4.430;2022-12-18T06:12:40;33.35;;;15.38;;
24799;SDS011;12897;50.812;4.430;2022-12-18T06:15:09;35.70;;;15.55;;
24799;SDS011;12897;50.812;4.430;2022-12-18T06:17:37;33.60;;;14.60;;
24799;SDS011;12897;50.812;4.430;2022-12-18T06:20:05;33.78;;;14.87;;
24799;SDS011;12897;50.812;4.430;2022-12-18T06:22:33;31.77;;;13.72;;
24799;SDS011;12897;50.812;4.430;2022-12-18T06:25:01;34.85;;;14.50;;
24799;SDS011;12897;50.812;4.430;2022-12-18T06:27:29;36.15;;;15.18;;
24799;SDS011;12897;50.812;4.430;2022-12-18T06:29:58;42.78;;;16.93;;
24799;SDS011;12897;50.812;4.430;2022-12-18T06:32:26;32.05;;;15.10;;
24799;SDS011;12897;50.812;4.430;2022-12-18T06:34:54;42.88;;;16.67;;
24799;SDS011;12897;50.812;4.430;2022-12-18T06:37:24;34.05;;;15.20;;
24799;SDS011;12897;50.812;4.430;2022-12-18T06:39:52;37.58;;;15.80;;
24799;SDS011;12897;50.812;4.430;2022-12-18T06:42:24;34.20;;;14.00;;
24799;SDS011;12897;50.812;4.430;2022-12-18T06:44:51;35.08;;;14.80;;
24799;SDS011;12897;50.812;4.430;2022-12-18T06:47:19;31.27;;;14.05;;
24799;SDS011;12897;50.812;4.430;2022-12-18T06:49:47;32.65;;;13.95;;
24799;SDS011;12897;50.812;4.430;2022-12-18T06:52:17;29.37;;;12.55;;
24799;SDS011;12897;50.812;4.430;2022-12-18T06:54:45;34.45;;;13.45;;
24799;SDS011;12897;50.812;4.430;2022-12-18T06:57:16;32.05;;;13.60;;
24799;SDS011;12897;50.812;4.430;2022-12-18T07:02:11;34.78;;;12.73;;
24799;SDS011;12897;50.812;4.430;2022-12-18T07:04:41;42.30;;;13.35;;
24799;SDS011;12897;50.812;4.430;2022-12-18T07:07:09;29.92;;;12.65;;
24799;SDS011;12897;50.812;4.430;2022-12-18T07:09:38;30.68;;;13.10;;
24799;SDS011;12897;50.812;4.430;2022-12-18T07:12:06;32.80;;;14.40;;
24799;SDS011;12897;50.812;4.430;2022-12-18T07:14:33;32.95;;;14.38;;
24799;SDS011;12897;50.812;4.430;2022-12-18T07:17:01;36.05;;;14.40;;
24799;SDS011;12897;50.812;4.430;2022-12-18T07:19:47;35.60;;;14.68;;
24799;SDS011;12897;50.812;4.430;2022-12-18T07:22:06;44.25;;;14.53;;
24799;SDS011;12897;50.812;4.430;2022-12-18T07:24:34;32.80;;;14.03;;
24799;SDS011;12897;50.812;4.430;2022-12-18T07:27:03;32.67;;;13.05;;
24799;SDS011;12897;50.812;4.430;2022-12-18T07:29:36;31.95;;;12.80;;
24799;SDS011;12897;50.812;4.430;2022-12-18T07:32:06;19.98;;;9.63;;
24799;SDS011;12897;50.812;4.430;2022-12-18T07:34:36;22.27;;;9.45;;
24799;SDS011;12897;50.812;4.430;2022-12-18T07:37:03;25.20;;;9.75;;
24799;SDS011;12897;50.812;4.430;2022-12-18T07:39:31;25.68;;;10.65;;
24799;SDS011;12897;50.812;4.430;2022-12-18T07:42:00;25.97;;;10.10;;
24799;SDS011;12897;50.812;4.430;2022-12-18T07:44:45;28.40;;;11.73;;
24799;SDS011;12897;50.812;4.430;2022-12-18T07:47:13;23.95;;;10.82;;
24799;SDS011;12897;50.812;4.430;2022-12-18T07:49:40;24.07;;;10.55;;
24799;SDS011;12897;50.812;4.430;2022-12-18T07:52:09;21.25;;;9.38;;
24799;SDS011;12897;50.812;4.430;2022-12-18T07:57:08;20.68;;;9.68;;
24799;SDS011;12897;50.812;4.430;2022-12-18T07:59:35;20.92;;;8.28;;
24799;SDS011;12897;50.812;4.430;2022-12-18T08:02:03;21.23;;;8.95;;
24799;SDS011;12897;50.812;4.430;2022-12-18T08:04:31;22.75;;;8.28;;
24799;SDS011;12897;50.812;4.430;2022-12-18T08:07:01;20.50;;;8.98;;
24799;SDS011;12897;50.812;4.430;2022-12-18T08:09:29;21.80;;;9.03;;
24799;SDS011;12897;50.812;4.430;2022-12-18T08:14:28;16.20;;;7.85;;
24799;SDS011;12897;50.812;4.430;2022-12-18T08:16:56;16.95;;;7.53;;
24799;SDS011;12897;50.812;4.430;2022-12-18T08:19:23;15.38;;;7.72;;
24799;SDS011;12897;50.812;4.430;2022-12-18T08:21:57;16.45;;;8.63;;
24799;SDS011;12897;50.812;4.430;2022-12-18T08:24:25;17.07;;;8.80;;
24799;SDS011;12897;50.812;4.430;2022-12-18T08:26:53;20.23;;;9.23;;
24799;SDS011;12897;50.812;4.430;2022-12-18T08:29:21;19.42;;;8.23;;
24799;SDS011;12897;50.812;4.430;2022-12-18T08:34:18;18.73;;;8.23;;
24799;SDS011;12897;50.812;4.430;2022-12-18T08:36:45;16.25;;;8.73;;
24799;SDS011;12897;50.812;4.430;2022-12-18T08:39:13;19.82;;;8.33;;
24799;SDS011;12897;50.812;4.430;2022-12-18T08:41:41;19.82;;;8.35;;
24799;SDS011;12897;50.812;4.430;2022-12-18T08:44:10;18.05;;;8.83;;
24799;SDS011;12897;50.812;4.430;2022-12-18T08:46:55;17.02;;;8.55;;
24799;SDS011;12897;50.812;4.430;2022-12-18T08:49:23;19.48;;;8.93;;
24799;SDS011;12897;50.812;4.430;2022-12-18T08:51:53;19.80;;;8.93;;
24799;SDS011;12897;50.812;4.430;2022-12-18T08:54:23;18.80;;;8.98;;
24799;SDS011;12897;50.812;4.430;2022-12-18T08:56:51;21.35;;;9.88;;
24799;SDS011;12897;50.812;4.430;2022-12-18T08:59:19;23.27;;;10.30;;
24799;SDS011;12897;50.812;4.430;2022-12-18T09:01:47;22.87;;;9.20;;
24799;SDS011;12897;50.812;4.430;2022-12-18T09:04:17;20.02;;;9.53;;
24799;SDS011;12897;50.812;4.430;2022-12-18T09:06:44;21.65;;;9.33;;
24799;SDS011;12897;50.812;4.430;2022-12-18T09:09:15;19.85;;;9.13;;
24799;SDS011;12897;50.812;4.430;2022-12-18T09:11:42;23.12;;;9.93;;
24799;SDS011;12897;50.812;4.430;2022-12-18T09:14:10;19.87;;;9.50;;
24799;SDS011;12897;50.812;4.430;2022-12-18T09:16:39;22.05;;;10.13;;
24799;SDS011;12897;50.812;4.430;2022-12-18T09:19:08;23.12;;;10.72;;
24799;SDS011;12897;50.812;4.430;2022-12-18T09:21:36;21.00;;;9.68;;
24799;SDS011;12897;50.812;4.430;2022-12-18T09:24:08;21.42;;;10.72;;
24799;SDS011;12897;50.812;4.430;2022-12-18T09:26:43;22.93;;;10.53;;
24799;SDS011;12897;50.812;4.430;2022-12-18T09:29:07;22.07;;;10.43;;
24799;SDS011;12897;50.812;4.430;2022-12-18T09:31:35;24.75;;;10.88;;
24799;SDS011;12897;50.812;4.430;2022-12-18T09:34:05;22.25;;;10.80;;
24799;SDS011;12897;50.812;4.430;2022-12-18T09:36:35;27.22;;;11.53;;
24799;SDS011;12897;50.812;4.430;2022-12-18T09:39:03;25.72;;;11.50;;
24799;SDS011;12897;50.812;4.430;2022-12-18T09:41:50;26.60;;;11.43;;
24799;SDS011;12897;50.812;4.430;2022-12-18T09:47:03;24.45;;;11.45;;
24799;SDS011;12897;50.812;4.430;2022-12-18T09:49:32;24.18;;;11.25;;
24799;SDS011;12897;50.812;4.430;2022-12-18T09:52:08;25.00;;;11.68;;
24799;SDS011;12897;50.812;4.430;2022-12-18T09:54:34;25.32;;;11.65;;
24799;SDS011;12897;50.812;4.430;2022-12-18T09:57:09;27.52;;;11.53;;
24799;SDS011;12897;50.812;4.430;2022-12-18T09:59:36;29.42;;;13.90;;
24799;SDS011;12897;50.812;4.430;2022-12-18T10:02:19;27.37;;;13.70;;
24799;SDS011;12897;50.812;4.430;2022-12-18T10:07:34;26.15;;;12.00;;
24799;SDS011;12897;50.812;4.430;2022-12-18T10:10:12;29.80;;;12.50;;
24799;SDS011;12897;50.812;4.430;2022-12-18T10:15:16;27.87;;;13.03;;
24799;SDS011;12897;50.812;4.430;2022-12-18T10:17:58;26.10;;;12.82;;
24799;SDS011;12897;50.812;4.430;2022-12-18T10:20:35;30.48;;;13.80;;
24799;SDS011;12897;50.812;4.430;2022-12-18T10:28:35;26.30;;;13.03;;
24799;SDS011;12897;50.812;4.430;2022-12-18T10:31:24;24.80;;;12.60;;
24799;SDS011;12897;50.812;4.430;2022-12-18T10:33:44;27.22;;;13.25;;
24799;SDS011;12897;50.812;4.430;2022-12-18T10:36:14;26.25;;;12.93;;
24799;SDS011;12897;50.812;4.430;2022-12-18T10:38:42;30.60;;;13.28;;
24799;SDS011;12897;50.812;4.430;2022-12-18T10:46:49;24.90;;;13.25;;
24799;SDS011;12897;50.812;4.430;2022-12-18T10:49:20;27.87;;;13.85;;
24799;SDS011;12897;50.812;4.430;2022-12-18T10:51:51;29.30;;;13.80;;
24799;SDS011;12897;50.812;4.430;2022-12-18T10:54:48;32.95;;;14.87;;
24799;SDS011;12897;50.812;4.430;2022-12-18T10:57:31;27.93;;;14.18;;
24799;SDS011;12897;50.812;4.430;2022-12-18T11:02:50;30.75;;;15.40;;
24799;SDS011;12897;50.812;4.430;2022-12-18T11:05:26;31.95;;;15.55;;
24799;SDS011;12897;50.812;4.430;2022-12-18T11:07:58;28.60;;;15.00;;
24799;SDS011;12897;50.812;4.430;2022-12-18T11:10:35;31.57;;;15.63;;
24799;SDS011;12897;50.812;4.430;2022-12-18T11:13:15;32.65;;;15.32;;
24799;SDS011;12897;50.812;4.430;2022-12-18T11:15:46;30.62;;;15.23;;
24799;SDS011;12897;50.812;4.430;2022-12-18T11:18:19;28.55;;;14.90;;
24799;SDS011;12897;50.812;4.430;2022-12-18T11:23:37;30.50;;;15.13;;
24799;SDS011;12897;50.812;4.430;2022-12-18T11:26:09;29.32;;;15.08;;
24799;SDS011;12897;50.812;4.430;2022-12-18T11:31:18;31.87;;;16.00;;
24799;SDS011;12897;50.812;4.430;2022-12-18T11:36:35;32.80;;;14.78;;
24799;SDS011;12897;50.812;4.430;2022-12-18T11:39:08;27.37;;;14.75;;
24799;SDS011;12897;50.812;4.430;2022-12-18T11:41:50;27.42;;;14.83;;
24799;SDS011;12897;50.812;4.430;2022-12-18T11:44:46;30.88;;;15.03;;
24799;SDS011;12897;50.812;4.430;2022-12-18T11:47:29;30.25;;;14.35;;
24799;SDS011;12897;50.812;4.430;2022-12-18T11:50:10;26.50;;;14.70;;
24799;SDS011;12897;50.812;4.430;2022-12-18T11:52:41;30.45;;;15.65;;
24799;SDS011;12897;50.812;4.430;2022-12-18T11:55:18;32.08;;;15.78;;
24799;SDS011;12897;50.812;4.430;2022-12-18T11:58:19;30.70;;;15.58;;
24799;SDS011;12897;50.812;4.430;2022-12-18T12:00:41;29.35;;;14.65;;
24799;SDS011;12897;50.812;4.430;2022-12-18T12:05:56;31.48;;;15.35;;
24799;SDS011;12897;50.812;4.430;2022-12-18T12:14:18;29.52;;;14.35;;
24799;SDS011;12897;50.812;4.430;2022-12-18T12:16:55;28.77;;;13.75;;
24799;SDS011;12897;50.812;4.430;2022-12-18T12:19:45;29.50;;;14.87;;
24799;SDS011;12897;50.812;4.430;2022-12-18T12:27:50;27.15;;;13.78;;
24799;SDS011;12897;50.812;4.430;2022-12-18T12:30:52;27.22;;;13.08;;
24799;SDS011;12897;50.812;4.430;2022-12-18T12:35:44;29.32;;;14.23;;
24799;SDS011;12897;50.812;4.430;2022-12-18T12:38:16;31.02;;;14.45;;
24799;SDS011;12897;50.812;4.430;2022-12-18T12:40:54;31.80;;;15.53;;
24799;SDS011;12897;50.812;4.430;2022-12-18T12:43:38;29.40;;;14.13;;
24799;SDS011;12897;50.812;4.430;2022-12-18T12:46:07;27.27;;;13.95;;
24799;SDS011;12897;50.812;4.430;2022-12-18T12:51:16;30.37;;;15.60;;
24799;SDS011;12897;50.812;4.430;2022-12-18T12:53:46;28.25;;;14.30;;
24799;SDS011;12897;50.812;4.430;2022-12-18T12:56:15;30.97;;;14.23;;
24799;SDS011;12897;50.812;4.430;2022-12-18T12:58:56;32.35;;;15.13;;
24799;SDS011;12897;50.812;4.430;2022-12-18T13:01:26;27.55;;;13.88;;
24799;SDS011;12897;50.812;4.430;2022-12-18T13:04:10;36.90;;;15.88;;
24799;SDS011;12897;50.812;4.430;2022-12-18T13:06:42;30.85;;;15.32;;
24799;SDS011;12897;50.812;4.430;2022-12-18T13:09:35;32.30;;;15.13;;
24799;SDS011;12897;50.812;4.430;2022-12-18T13:12:02;34.20;;;15.85;;
24799;SDS011;12897;50.812;4.430;2022-12-18T13:14:49;31.57;;;14.65;;
24799;SDS011;12897;50.812;4.430;2022-12-18T13:17:24;30.55;;;15.88;;
24799;SDS011;12897;50.812;4.430;2022-12-18T13:19:51;30.77;;;15.45;;
24799;SDS011;12897;50.812;4.430;2022-12-18T13:22:40;32.50;;;15.48;;
24799;SDS011;12897;50.812;4.430;2022-12-18T13:25:31;33.48;;;15.98;;
24799;SDS011;12897;50.812;4.430;2022-12-18T13:28:10;33.33;;;16.27;;
24799;SDS011;12897;50.812;4.430;2022-12-18T13:30:57;39.20;;;16.48;;
24799;SDS011;12897;50.812;4.430;2022-12-18T13:36:13;34.03;;;16.82;;
24799;SDS011;12897;50.812;4.430;2022-12-18T13:38:46;36.75;;;17.07;;
24799;SDS011;12897;50.812;4.430;2022-12-18T13:41:27;35.08;;;16.90;;
24799;SDS011;12897;50.812;4.430;2022-12-18T13:46:41;33.83;;;16.55;;
24799;SDS011;12897;50.812;4.430;2022-12-18T13:51:47;44.27;;;18.15;;
24799;SDS011;12897;50.812;4.430;2022-12-18T13:54:19;38.67;;;18.02;;
24799;SDS011;12897;50.812;4.430;2022-12-18T13:56:51;39.23;;;18.12;;
24799;SDS011;12897;50.812;4.430;2022-12-18T13:59:24;35.23;;;17.32;;
24799;SDS011;12897;50.812;4.430;2022-12-18T14:01:54;36.90;;;18.05;;
24799;SDS011;12897;50.812;4.430;2022-12-18T14:04:27;38.98;;;18.20;;
24799;SDS011;12897;50.812;4.430;2022-12-18T14:07:13;40.00;;;18.50;;
24799;SDS011;12897;50.812;4.430;2022-12-18T14:09:55;44.53;;;18.98;;
24799;SDS011;12897;50.812;4.430;2022-12-18T14:12:27;43.05;;;20.23;;
24799;SDS011;12897;50.812;4.430;2022-12-18T14:15:21;41.13;;;18.70;;
24799;SDS011;12897;50.812;4.430;2022-12-18T14:17:58;43.98;;;19.45;;
24799;SDS011;12897;50.812;4.430;2022-12-18T14:20:32;42.13;;;20.12;;
24799;SDS011;12897;50.812;4.430;2022-12-18T14:23:01;43.13;;;20.23;;
24799;SDS011;12897;50.812;4.430;2022-12-18T14:25:32;41.98;;;20.57;;
24799;SDS011;12897;50.812;4.430;2022-12-18T14:30:38;41.90;;;19.17;;
24799;SDS011;12897;50.812;4.430;2022-12-18T14:35:43;44.25;;;20.92;;
24799;SDS011;12897;50.812;4.430;2022-12-18T14:38:29;45.23;;;20.17;;
24799;SDS011;12897;50.812;4.430;2022-12-18T14:43:32;46.20;;;20.80;;
24799;SDS011;12897;50.812;4.430;2022-12-18T14:46:00;49.53;;;21.40;;
24799;SDS011;12897;50.812;4.430;2022-12-18T14:48:43;50.65;;;22.30;;
24799;SDS011;12897;50.812;4.430;2022-12-18T14:53:47;49.05;;;21.60;;
24799;SDS011;12897;50.812;4.430;2022-12-18T14:56:21;50.30;;;22.25;;
24799;SDS011;12897;50.812;4.430;2022-12-18T14:58:54;44.30;;;20.27;;
24799;SDS011;12897;50.812;4.430;2022-12-18T15:01:31;49.08;;;21.73;;
24799;SDS011;12897;50.812;4.430;2022-12-18T15:04:01;50.60;;;21.70;;
24799;SDS011;12897;50.812;4.430;2022-12-18T15:06:33;49.90;;;22.05;;
24799;SDS011;12897;50.812;4.430;2022-12-18T15:11:42;48.85;;;21.33;;
24799;SDS011;12897;50.812;4.430;2022-12-18T15:16:59;52.40;;;21.40;;
24799;SDS011;12897;50.812;4.430;2022-12-18T15:19:37;51.90;;;23.02;;
24799;SDS011;12897;50.812;4.430;2022-12-18T15:22:18;52.23;;;22.15;;
24799;SDS011;12897;50.812;4.430;2022-12-18T15:27:22;44.38;;;20.40;;
24799;SDS011;12897;50.812;4.430;2022-12-18T15:32:45;48.68;;;21.93;;
24799;SDS011;12897;50.812;4.430;2022-12-18T15:35:29;51.33;;;21.52;;
24799;SDS011;12897;50.812;4.430;2022-12-18T15:40:22;48.40;;;21.57;;
24799;SDS011;12897;50.812;4.430;2022-12-18T15:42:51;49.40;;;22.00;;
24799;SDS011;12897;50.812;4.430;2022-12-18T15:45:39;50.43;;;21.60;;
24799;SDS011;12897;50.812;4.430;2022-12-18T15:48:14;50.90;;;22.80;;
24799;SDS011;12897;50.812;4.430;2022-12-18T15:50:43;49.85;;;20.20;;
24799;SDS011;12897;50.812;4.430;2022-12-18T15:53:10;51.42;;;21.50;;
24799;SDS011;12897;50.812;4.430;2022-12-18T15:55:38;53.35;;;21.68;;
24799;SDS011;12897;50.812;4.430;2022-12-18T15:58:25;46.18;;;20.32;;
24799;SDS011;12897;50.812;4.430;2022-12-18T16:00:53;53.63;;;20.73;;
24799;SDS011;12897;50.812;4.430;2022-12-18T16:03:25;51.18;;;21.00;;
24799;SDS011;12897;50.812;4.430;2022-12-18T16:05:53;47.35;;;20.68;;
24799;SDS011;12897;50.812;4.430;2022-12-18T16:08:20;53.13;;;21.55;;
24799;SDS011;12897;50.812;4.430;2022-12-18T16:10:49;45.30;;;20.32;;
24799;SDS011;12897;50.812;4.430;2022-12-18T16:13:16;46.42;;;21.50;;
24799;SDS011;12897;50.812;4.430;2022-12-18T16:18:15;50.43;;;20.27;;
24799;SDS011;12897;50.812;4.430;2022-12-18T16:20:44;48.70;;;20.25;;
24799;SDS011;12897;50.812;4.430;2022-12-18T16:23:12;46.18;;;19.20;;
24799;SDS011;12897;50.812;4.430;2022-12-18T16:25:39;42.10;;;18.90;;
24799;SDS011;12897;50.812;4.430;2022-12-18T16:28:07;48.15;;;20.00;;
24799;SDS011;12897;50.812;4.430;2022-12-18T16:30:35;50.15;;;19.75;;
24799;SDS011;12897;50.812;4.430;2022-12-18T16:33:03;44.35;;;20.90;;
24799;SDS011;12897;50.812;4.430;2022-12-18T16:35:31;53.15;;;19.15;;
24799;SDS011;12897;50.812;4.430;2022-12-18T16:37:59;42.43;;;19.70;;
24799;SDS011;12897;50.812;4.430;2022-12-18T16:40:30;46.50;;;19.90;;
24799;SDS011;12897;50.812;4.430;2022-12-18T16:43:01;48.52;;;21.12;;
24799;SDS011;12897;50.812;4.430;2022-12-18T16:45:29;45.15;;;19.30;;
24799;SDS011;12897;50.812;4.430;2022-12-18T16:47:58;54.65;;;20.30;;
24799;SDS011;12897;50.812;4.430;2022-12-18T16:50:26;45.60;;;18.77;;
24799;SDS011;12897;50.812;4.430;2022-12-18T16:52:53;42.98;;;18.92;;
24799;SDS011;12897;50.812;4.430;2022-12-18T16:55:21;43.98;;;19.65;;
24799;SDS011;12897;50.812;4.430;2022-12-18T16:57:51;43.35;;;19.60;;
24799;SDS011;12897;50.812;4.430;2022-12-18T17:00:18;48.38;;;19.62;;
24799;SDS011;12897;50.812;4.430;2022-12-18T17:02:45;46.98;;;19.92;;
24799;SDS011;12897;50.812;4.430;2022-12-18T17:05:13;49.08;;;20.92;;
24799;SDS011;12897;50.812;4.430;2022-12-18T17:07:40;43.13;;;18.45;;
24799;SDS011;12897;50.812;4.430;2022-12-18T17:10:10;52.27;;;20.10;;
24799;SDS011;12897;50.812;4.430;2022-12-18T17:12:37;48.85;;;19.73;;
24799;SDS011;12897;50.812;4.430;2022-12-18T17:15:06;45.03;;;19.20;;
24799;SDS011;12897;50.812;4.430;2022-12-18T17:17:35;42.30;;;19.02;;
24799;SDS011;12897;50.812;4.430;2022-12-18T17:20:06;43.05;;;19.25;;
24799;SDS011;12897;50.812;4.430;2022-12-18T17:22:35;47.70;;;19.42;;
24799;SDS011;12897;50.812;4.430;2022-12-18T17:25:02;45.90;;;19.30;;